sensor_id;sensor_type;location;lat;lon;timestamp;P1;durP1;ratioP1;P2;durP2;ratioP2
39264;SDS011;42646;51.910;7.724;2024-03-08T00:00:05;19.13;;;12.35;;
39264;SDS011;42646;51.910;7.724;2024-03-08T00:02:40;21.77;;;13.82;;
39264;SDS011;42646;51.910;7.724;2024-03-08T00:05:12;21.05;;;12.95;;
39264;SDS011;42646;51.910;7.724;2024-03-08T00:07:40;19.25;;;12.60;;
39264;SDS011;42646;51.910;7.724;2024-03-08T00:10:12;19.50;;;13.05;;
39264;SDS011;42646;51.910;7.724;2024-03-08T00:12:42;19.08;;;12.50;;
39264;SDS011;42646;51.910;7.724;2024-03-08T00:15:13;22.23;;;13.60;;
39264;SDS011;42646;51.910;7.724;2024-03-08T00:17:45;22.92;;;13.75;;
39264;SDS011;42646;51.910;7.724;2024-03-08T00:20:14;20.47;;;13.37;;
39264;SDS011;42646;51.910;7.724;2024-03-08T00:22:44;22.95;;;14.27;;
39264;SDS011;42646;51.910;7.724;2024-03-08T00:25:12;20.13;;;13.45;;
39264;SDS011;42646;51.910;7.724;2024-03-08T00:27:40;20.75;;;13.73;;
39264;SDS011;42646;51.910;7.724;2024-03-08T00:30:11;19.95;;;13.45;;
39264;SDS011;42646;51.910;7.724;2024-03-08T00:32:40;21.60;;;13.77;;
39264;SDS011;42646;51.910;7.724;2024-03-08T00:35:10;19.58;;;13.38;;
39264;SDS011;42646;51.910;7.724;2024-03-08T00:37:38;21.85;;;14.25;;
39264;SDS011;42646;51.910;7.724;2024-03-08T00:40:07;23.73;;;14.65;;
39264;SDS011;42646;51.910;7.724;2024-03-08T00:42:35;20.63;;;14.23;;
39264;SDS011;42646;51.910;7.724;2024-03-08T00:45:04;21.13;;;13.88;;
39264;SDS011;42646;51.910;7.724;2024-03-08T00:47:32;20.83;;;14.35;;
39264;SDS011;42646;51.910;7.724;2024-03-08T00:50:00;23.70;;;14.80;;
39264;SDS011;42646;51.910;7.724;2024-03-08T00:52:31;22.35;;;14.30;;
39264;SDS011;42646;51.910;7.724;2024-03-08T00:55:01;24.17;;;14.10;;
39264;SDS011;42646;51.910;7.724;2024-03-08T00:57:29;27.77;;;15.77;;
39264;SDS011;42646;51.910;7.724;2024-03-08T00:59:57;23.00;;;14.95;;
39264;SDS011;42646;51.910;7.724;2024-03-08T01:02:24;20.92;;;13.68;;
39264;SDS011;42646;51.910;7.724;2024-03-08T01:04:52;22.60;;;14.57;;
39264;SDS011;42646;51.910;7.724;2024-03-08T01:07:20;24.85;;;15.00;;
39264;SDS011;42646;51.910;7.724;2024-03-08T01:09:49;23.25;;;14.88;;
39264;SDS011;42646;51.910;7.724;2024-03-08T01:12:17;23.20;;;14.13;;
39264;SDS011;42646;51.910;7.724;2024-03-08T01:14:44;23.63;;;14.55;;
39264;SDS011;42646;51.910;7.724;2024-03-08T01:17:12;25.90;;;14.98;;
39264;SDS011;42646;51.910;7.724;2024-03-08T01:19:40;22.90;;;14.93;;
39264;SDS011;42646;51.910;7.724;2024-03-08T01:22:07;23.52;;;15.73;;
39264;SDS011;42646;51.910;7.724;2024-03-08T01:24:35;23.85;;;15.23;;
39264;SDS011;42646;51.910;7.724;2024-03-08T01:27:04;22.63;;;15.07;;
39264;SDS011;42646;51.910;7.724;2024-03-08T01:29:32;21.80;;;14.60;;
39264;SDS011;42646;51.910;7.724;2024-03-08T01:32:00;24.45;;;15.07;;
39264;SDS011;42646;51.910;7.724;2024-03-08T01:34:28;24.65;;;14.70;;
39264;SDS011;42646;51.910;7.724;2024-03-08T01:36:56;24.98;;;16.00;;
39264;SDS011;42646;51.910;7.724;2024-03-08T01:39:24;25.55;;;15.70;;
39264;SDS011;42646;51.910;7.724;2024-03-08T01:41:51;21.23;;;14.82;;
39264;SDS011;42646;51.910;7.724;2024-03-08T01:44:22;23.42;;;15.43;;
39264;SDS011;42646;51.910;7.724;2024-03-08T01:46:50;23.88;;;15.15;;
39264;SDS011;42646;51.910;7.724;2024-03-08T01:49:20;23.77;;;14.32;;
39264;SDS011;42646;51.910;7.724;2024-03-08T01:51:50;24.48;;;15.73;;
39264;SDS011;42646;51.910;7.724;2024-03-08T01:54:18;22.55;;;15.18;;
39264;SDS011;42646;51.910;7.724;2024-03-08T02:00:56;23.77;;;14.82;;
39264;SDS011;42646;51.910;7.724;2024-03-08T02:03:24;25.52;;;15.32;;
39264;SDS011;42646;51.910;7.724;2024-03-08T02:05:52;22.02;;;14.73;;
39264;SDS011;42646;51.910;7.724;2024-03-08T02:08:21;23.88;;;15.18;;
39264;SDS011;42646;51.910;7.724;2024-03-08T02:10:49;25.60;;;15.43;;
39264;SDS011;42646;51.910;7.724;2024-03-08T02:13:17;23.85;;;15.48;;
39264;SDS011;42646;51.910;7.724;2024-03-08T02:15:55;25.45;;;15.63;;
39264;SDS011;42646;51.910;7.724;2024-03-08T02:18:26;23.17;;;15.38;;
39264;SDS011;42646;51.910;7.724;2024-03-08T02:20:57;24.45;;;15.25;;
39264;SDS011;42646;51.910;7.724;2024-03-08T02:23:26;25.07;;;16.50;;
39264;SDS011;42646;51.910;7.724;2024-03-08T02:25:55;26.88;;;16.52;;
39264;SDS011;42646;51.910;7.724;2024-03-08T02:28:24;24.33;;;15.57;;
39264;SDS011;42646;51.910;7.724;2024-03-08T02:30:52;25.13;;;16.05;;
39264;SDS011;42646;51.910;7.724;2024-03-08T02:33:22;24.63;;;15.45;;
39264;SDS011;42646;51.910;7.724;2024-03-08T02:35:51;26.08;;;16.90;;
39264;SDS011;42646;51.910;7.724;2024-03-08T02:38:20;24.42;;;15.65;;
39264;SDS011;42646;51.910;7.724;2024-03-08T02:40:51;27.52;;;16.23;;
39264;SDS011;42646;51.910;7.724;2024-03-08T02:43:20;22.67;;;14.57;;
39264;SDS011;42646;51.910;7.724;2024-03-08T02:45:50;25.23;;;15.77;;
39264;SDS011;42646;51.910;7.724;2024-03-08T02:48:19;23.17;;;15.82;;
39264;SDS011;42646;51.910;7.724;2024-03-08T02:50:48;25.70;;;16.27;;
39264;SDS011;42646;51.910;7.724;2024-03-08T02:53:17;23.35;;;16.02;;
39264;SDS011;42646;51.910;7.724;2024-03-08T02:55:47;25.23;;;16.08;;
39264;SDS011;42646;51.910;7.724;2024-03-08T02:58:14;24.23;;;15.75;;
39264;SDS011;42646;51.910;7.724;2024-03-08T03:00:42;25.77;;;17.02;;
39264;SDS011;42646;51.910;7.724;2024-03-08T03:03:10;27.50;;;17.30;;
39264;SDS011;42646;51.910;7.724;2024-03-08T03:05:38;26.25;;;16.58;;
39264;SDS011;42646;51.910;7.724;2024-03-08T03:08:11;25.52;;;16.08;;
39264;SDS011;42646;51.910;7.724;2024-03-08T03:10:39;27.95;;;17.75;;
39264;SDS011;42646;51.910;7.724;2024-03-08T03:13:08;26.27;;;16.42;;
39264;SDS011;42646;51.910;7.724;2024-03-08T03:15:36;27.90;;;16.45;;
39264;SDS011;42646;51.910;7.724;2024-03-08T03:18:04;25.17;;;16.25;;
39264;SDS011;42646;51.910;7.724;2024-03-08T03:20:34;27.27;;;17.10;;
39264;SDS011;42646;51.910;7.724;2024-03-08T03:23:06;24.65;;;16.58;;
39264;SDS011;42646;51.910;7.724;2024-03-08T03:25:35;25.77;;;15.77;;
39264;SDS011;42646;51.910;7.724;2024-03-08T03:28:05;28.00;;;17.02;;
39264;SDS011;42646;51.910;7.724;2024-03-08T03:30:35;26.40;;;16.63;;
39264;SDS011;42646;51.910;7.724;2024-03-08T03:33:03;24.73;;;16.50;;
39264;SDS011;42646;51.910;7.724;2024-03-08T03:35:33;25.45;;;16.65;;
39264;SDS011;42646;51.910;7.724;2024-03-08T03:38:02;25.77;;;16.60;;
39264;SDS011;42646;51.910;7.724;2024-03-08T03:40:34;24.67;;;15.73;;
39264;SDS011;42646;51.910;7.724;2024-03-08T03:43:02;27.00;;;16.85;;
39264;SDS011;42646;51.910;7.724;2024-03-08T03:45:31;26.83;;;17.50;;
39264;SDS011;42646;51.910;7.724;2024-03-08T03:48:05;28.00;;;16.38;;
39264;SDS011;42646;51.910;7.724;2024-03-08T03:50:35;25.25;;;16.23;;
39264;SDS011;42646;51.910;7.724;2024-03-08T03:53:03;28.35;;;17.10;;
39264;SDS011;42646;51.910;7.724;2024-03-08T03:55:36;26.33;;;17.40;;
39264;SDS011;42646;51.910;7.724;2024-03-08T03:58:04;27.42;;;16.90;;
39264;SDS011;42646;51.910;7.724;2024-03-08T04:00:32;26.42;;;17.02;;
39264;SDS011;42646;51.910;7.724;2024-03-08T04:02:59;27.55;;;16.73;;
39264;SDS011;42646;51.910;7.724;2024-03-08T04:05:29;30.08;;;17.88;;
39264;SDS011;42646;51.910;7.724;2024-03-08T04:07:57;27.73;;;16.92;;
39264;SDS011;42646;51.910;7.724;2024-03-08T04:10:25;30.00;;;17.55;;
39264;SDS011;42646;51.910;7.724;2024-03-08T04:12:52;27.30;;;17.63;;
39264;SDS011;42646;51.910;7.724;2024-03-08T04:15:20;30.95;;;17.30;;
39264;SDS011;42646;51.910;7.724;2024-03-08T04:17:47;26.17;;;16.85;;
39264;SDS011;42646;51.910;7.724;2024-03-08T04:20:15;26.60;;;16.95;;
39264;SDS011;42646;51.910;7.724;2024-03-08T04:22:45;27.95;;;17.65;;
39264;SDS011;42646;51.910;7.724;2024-03-08T04:25:14;29.80;;;17.80;;
39264;SDS011;42646;51.910;7.724;2024-03-08T04:27:42;30.98;;;18.63;;
39264;SDS011;42646;51.910;7.724;2024-03-08T04:30:11;27.30;;;17.65;;
39264;SDS011;42646;51.910;7.724;2024-03-08T04:32:39;28.38;;;17.23;;
39264;SDS011;42646;51.910;7.724;2024-03-08T04:35:09;27.45;;;17.30;;
39264;SDS011;42646;51.910;7.724;2024-03-08T04:37:38;28.63;;;17.90;;
39264;SDS011;42646;51.910;7.724;2024-03-08T04:40:08;27.52;;;17.85;;
39264;SDS011;42646;51.910;7.724;2024-03-08T04:42:36;28.38;;;17.83;;
39264;SDS011;42646;51.910;7.724;2024-03-08T04:45:05;29.27;;;17.65;;
39264;SDS011;42646;51.910;7.724;2024-03-08T04:47:34;27.92;;;17.10;;
39264;SDS011;42646;51.910;7.724;2024-03-08T04:50:03;27.08;;;17.17;;
39264;SDS011;42646;51.910;7.724;2024-03-08T04:52:32;29.70;;;18.38;;
39264;SDS011;42646;51.910;7.724;2024-03-08T04:54:59;27.33;;;17.58;;
39264;SDS011;42646;51.910;7.724;2024-03-08T04:57:29;31.60;;;18.38;;
39264;SDS011;42646;51.910;7.724;2024-03-08T04:59:57;29.13;;;17.70;;
39264;SDS011;42646;51.910;7.724;2024-03-08T05:02:25;27.70;;;17.42;;
39264;SDS011;42646;51.910;7.724;2024-03-08T05:04:53;29.88;;;17.45;;
39264;SDS011;42646;51.910;7.724;2024-03-08T05:07:21;29.35;;;18.45;;
39264;SDS011;42646;51.910;7.724;2024-03-08T05:09:49;29.92;;;18.33;;
39264;SDS011;42646;51.910;7.724;2024-03-08T05:12:18;30.75;;;18.67;;
39264;SDS011;42646;51.910;7.724;2024-03-08T05:14:47;28.52;;;18.02;;
39264;SDS011;42646;51.910;7.724;2024-03-08T05:17:16;30.02;;;19.00;;
39264;SDS011;42646;51.910;7.724;2024-03-08T05:19:43;33.05;;;18.75;;
39264;SDS011;42646;51.910;7.724;2024-03-08T05:22:11;28.08;;;17.35;;
39264;SDS011;42646;51.910;7.724;2024-03-08T05:24:39;29.85;;;17.92;;
39264;SDS011;42646;51.910;7.724;2024-03-08T05:27:07;31.52;;;19.33;;
39264;SDS011;42646;51.910;7.724;2024-03-08T05:29:35;29.90;;;18.17;;
39264;SDS011;42646;51.910;7.724;2024-03-08T05:32:04;29.65;;;18.05;;
39264;SDS011;42646;51.910;7.724;2024-03-08T05:34:33;29.73;;;18.17;;
39264;SDS011;42646;51.910;7.724;2024-03-08T05:37:00;28.17;;;17.95;;
39264;SDS011;42646;51.910;7.724;2024-03-08T05:39:29;29.65;;;18.58;;
39264;SDS011;42646;51.910;7.724;2024-03-08T05:41:56;32.03;;;18.83;;
39264;SDS011;42646;51.910;7.724;2024-03-08T05:44:24;30.88;;;18.38;;
39264;SDS011;42646;51.910;7.724;2024-03-08T05:46:55;29.23;;;17.75;;
39264;SDS011;42646;51.910;7.724;2024-03-08T05:49:23;27.60;;;18.27;;
39264;SDS011;42646;51.910;7.724;2024-03-08T05:51:51;32.20;;;18.75;;
39264;SDS011;42646;51.910;7.724;2024-03-08T05:54:20;28.00;;;17.25;;
39264;SDS011;42646;51.910;7.724;2024-03-08T05:56:51;31.25;;;19.05;;
39264;SDS011;42646;51.910;7.724;2024-03-08T05:59:19;31.50;;;18.58;;
39264;SDS011;42646;51.910;7.724;2024-03-08T06:01:49;31.05;;;18.42;;
39264;SDS011;42646;51.910;7.724;2024-03-08T06:04:17;30.50;;;18.60;;
39264;SDS011;42646;51.910;7.724;2024-03-08T06:06:46;31.42;;;18.58;;
39264;SDS011;42646;51.910;7.724;2024-03-08T06:09:18;28.13;;;16.92;;
39264;SDS011;42646;51.910;7.724;2024-03-08T06:11:51;32.90;;;19.05;;
39264;SDS011;42646;51.910;7.724;2024-03-08T06:14:19;33.22;;;19.25;;
39264;SDS011;42646;51.910;7.724;2024-03-08T06:16:46;29.02;;;17.90;;
39264;SDS011;42646;51.910;7.724;2024-03-08T06:19:16;30.10;;;17.92;;
39264;SDS011;42646;51.910;7.724;2024-03-08T06:21:44;31.33;;;18.17;;
39264;SDS011;42646;51.910;7.724;2024-03-08T06:24:13;29.15;;;18.30;;
39264;SDS011;42646;51.910;7.724;2024-03-08T06:26:42;31.50;;;18.05;;
39264;SDS011;42646;51.910;7.724;2024-03-08T06:29:10;33.65;;;18.40;;
39264;SDS011;42646;51.910;7.724;2024-03-08T06:31:39;31.25;;;18.65;;
39264;SDS011;42646;51.910;7.724;2024-03-08T06:34:06;30.40;;;18.73;;
39264;SDS011;42646;51.910;7.724;2024-03-08T06:36:35;30.50;;;18.42;;
39264;SDS011;42646;51.910;7.724;2024-03-08T06:39:04;30.50;;;17.90;;
39264;SDS011;42646;51.910;7.724;2024-03-08T06:41:37;34.17;;;18.23;;
39264;SDS011;42646;51.910;7.724;2024-03-08T06:44:05;29.55;;;18.02;;
39264;SDS011;42646;51.910;7.724;2024-03-08T06:46:34;34.10;;;18.63;;
39264;SDS011;42646;51.910;7.724;2024-03-08T06:49:01;31.13;;;19.08;;
39264;SDS011;42646;51.910;7.724;2024-03-08T06:51:29;29.02;;;17.38;;
39264;SDS011;42646;51.910;7.724;2024-03-08T06:53:57;31.88;;;18.80;;
39264;SDS011;42646;51.910;7.724;2024-03-08T06:56:24;31.52;;;18.23;;
39264;SDS011;42646;51.910;7.724;2024-03-08T06:58:54;32.08;;;19.08;;
39264;SDS011;42646;51.910;7.724;2024-03-08T07:01:21;29.63;;;18.25;;
39264;SDS011;42646;51.910;7.724;2024-03-08T07:03:49;30.95;;;18.48;;
39264;SDS011;42646;51.910;7.724;2024-03-08T07:06:19;30.30;;;18.63;;
39264;SDS011;42646;51.910;7.724;2024-03-08T07:08:46;31.65;;;17.73;;
39264;SDS011;42646;51.910;7.724;2024-03-08T07:11:15;29.80;;;18.33;;
39264;SDS011;42646;51.910;7.724;2024-03-08T07:13:44;32.08;;;18.58;;
39264;SDS011;42646;51.910;7.724;2024-03-08T07:16:13;37.03;;;19.67;;
39264;SDS011;42646;51.910;7.724;2024-03-08T07:18:42;29.13;;;18.27;;
39264;SDS011;42646;51.910;7.724;2024-03-08T07:21:10;31.13;;;18.77;;
39264;SDS011;42646;51.910;7.724;2024-03-08T07:23:38;30.23;;;18.25;;
39264;SDS011;42646;51.910;7.724;2024-03-08T07:26:29;30.58;;;17.50;;
39264;SDS011;42646;51.910;7.724;2024-03-08T07:28:57;27.92;;;17.45;;
39264;SDS011;42646;51.910;7.724;2024-03-08T07:31:28;30.75;;;18.02;;
39264;SDS011;42646;51.910;7.724;2024-03-08T07:34:10;29.35;;;18.85;;
39264;SDS011;42646;51.910;7.724;2024-03-08T07:36:38;32.33;;;18.60;;
39264;SDS011;42646;51.910;7.724;2024-03-08T07:39:06;29.60;;;17.83;;
39264;SDS011;42646;51.910;7.724;2024-03-08T07:41:37;28.85;;;17.02;;
39264;SDS011;42646;51.910;7.724;2024-03-08T07:44:06;28.67;;;18.55;;
39264;SDS011;42646;51.910;7.724;2024-03-08T07:46:35;32.03;;;18.80;;
39264;SDS011;42646;51.910;7.724;2024-03-08T07:49:03;31.10;;;17.42;;
39264;SDS011;42646;51.910;7.724;2024-03-08T07:51:31;30.48;;;18.27;;
39264;SDS011;42646;51.910;7.724;2024-03-08T07:53:59;33.60;;;20.67;;
39264;SDS011;42646;51.910;7.724;2024-03-08T07:56:26;30.20;;;18.67;;
39264;SDS011;42646;51.910;7.724;2024-03-08T07:58:54;29.25;;;18.50;;
39264;SDS011;42646;51.910;7.724;2024-03-08T08:01:22;31.50;;;19.02;;
39264;SDS011;42646;51.910;7.724;2024-03-08T08:03:51;32.33;;;19.23;;
39264;SDS011;42646;51.910;7.724;2024-03-08T08:06:19;26.67;;;17.92;;
39264;SDS011;42646;51.910;7.724;2024-03-08T08:08:46;31.77;;;18.42;;
39264;SDS011;42646;51.910;7.724;2024-03-08T08:11:14;30.00;;;18.45;;
39264;SDS011;42646;51.910;7.724;2024-03-08T08:13:42;29.90;;;18.75;;
39264;SDS011;42646;51.910;7.724;2024-03-08T08:16:10;33.20;;;18.55;;
39264;SDS011;42646;51.910;7.724;2024-03-08T08:18:39;28.85;;;18.48;;
39264;SDS011;42646;51.910;7.724;2024-03-08T08:21:08;31.13;;;19.23;;
39264;SDS011;42646;51.910;7.724;2024-03-08T08:23:37;31.73;;;18.42;;
39264;SDS011;42646;51.910;7.724;2024-03-08T08:26:05;29.90;;;17.88;;
39264;SDS011;42646;51.910;7.724;2024-03-08T08:28:34;31.90;;;19.20;;
39264;SDS011;42646;51.910;7.724;2024-03-08T08:31:01;31.33;;;18.42;;
39264;SDS011;42646;51.910;7.724;2024-03-08T08:33:30;28.40;;;17.98;;
39264;SDS011;42646;51.910;7.724;2024-03-08T08:35:58;31.92;;;19.35;;
39264;SDS011;42646;51.910;7.724;2024-03-08T08:38:27;27.52;;;18.33;;
39264;SDS011;42646;51.910;7.724;2024-03-08T08:40:54;29.55;;;18.85;;
39264;SDS011;42646;51.910;7.724;2024-03-08T08:43:22;28.42;;;18.00;;
39264;SDS011;42646;51.910;7.724;2024-03-08T08:45:51;32.47;;;20.05;;
39264;SDS011;42646;51.910;7.724;2024-03-08T08:48:20;28.27;;;18.17;;
39264;SDS011;42646;51.910;7.724;2024-03-08T08:50:48;30.27;;;18.55;;
39264;SDS011;42646;51.910;7.724;2024-03-08T08:53:16;30.08;;;18.50;;
39264;SDS011;42646;51.910;7.724;2024-03-08T08:55:46;32.30;;;18.92;;
39264;SDS011;42646;51.910;7.724;2024-03-08T08:58:13;30.02;;;17.75;;
39264;SDS011;42646;51.910;7.724;2024-03-08T09:00:41;28.13;;;18.23;;
39264;SDS011;42646;51.910;7.724;2024-03-08T09:03:10;32.35;;;20.35;;
39264;SDS011;42646;51.910;7.724;2024-03-08T09:05:38;29.67;;;17.35;;
39264;SDS011;42646;51.910;7.724;2024-03-08T09:08:11;26.13;;;17.38;;
39264;SDS011;42646;51.910;7.724;2024-03-08T09:10:39;28.60;;;18.05;;
39264;SDS011;42646;51.910;7.724;2024-03-08T09:13:08;27.95;;;18.52;;
39264;SDS011;42646;51.910;7.724;2024-03-08T09:15:43;29.30;;;18.88;;
39264;SDS011;42646;51.910;7.724;2024-03-08T09:18:11;28.60;;;17.92;;
39264;SDS011;42646;51.910;7.724;2024-03-08T09:20:39;29.27;;;17.90;;
39264;SDS011;42646;51.910;7.724;2024-03-08T09:23:07;29.77;;;18.98;;
39264;SDS011;42646;51.910;7.724;2024-03-08T09:25:35;29.23;;;18.40;;
39264;SDS011;42646;51.910;7.724;2024-03-08T09:28:04;28.83;;;17.95;;
39264;SDS011;42646;51.910;7.724;2024-03-08T09:30:33;31.35;;;18.27;;
39264;SDS011;42646;51.910;7.724;2024-03-08T09:33:03;31.87;;;18.53;;
39264;SDS011;42646;51.910;7.724;2024-03-08T09:35:32;27.52;;;18.00;;
39264;SDS011;42646;51.910;7.724;2024-03-08T09:37:59;28.90;;;17.95;;
39264;SDS011;42646;51.910;7.724;2024-03-08T09:40:27;26.52;;;17.98;;
39264;SDS011;42646;51.910;7.724;2024-03-08T09:42:55;30.73;;;18.25;;
39264;SDS011;42646;51.910;7.724;2024-03-08T09:45:23;28.55;;;17.67;;
39264;SDS011;42646;51.910;7.724;2024-03-08T09:47:54;29.83;;;19.05;;
39264;SDS011;42646;51.910;7.724;2024-03-08T09:50:22;27.48;;;17.90;;
39264;SDS011;42646;51.910;7.724;2024-03-08T09:52:52;26.88;;;17.38;;
39264;SDS011;42646;51.910;7.724;2024-03-08T09:55:23;30.52;;;17.95;;
39264;SDS011;42646;51.910;7.724;2024-03-08T09:57:54;28.25;;;17.23;;
39264;SDS011;42646;51.910;7.724;2024-03-08T10:00:40;26.33;;;17.45;;
39264;SDS011;42646;51.910;7.724;2024-03-08T10:03:09;28.75;;;18.35;;
39264;SDS011;42646;51.910;7.724;2024-03-08T10:05:40;26.75;;;17.40;;
39264;SDS011;42646;51.910;7.724;2024-03-08T10:08:08;27.40;;;17.60;;
39264;SDS011;42646;51.910;7.724;2024-03-08T10:10:36;27.00;;;17.83;;
39264;SDS011;42646;51.910;7.724;2024-03-08T10:13:05;28.15;;;18.33;;
39264;SDS011;42646;51.910;7.724;2024-03-08T10:15:33;26.58;;;17.25;;
39264;SDS011;42646;51.910;7.724;2024-03-08T10:18:01;24.90;;;16.83;;
39264;SDS011;42646;51.910;7.724;2024-03-08T10:20:31;24.80;;;16.45;;
39264;SDS011;42646;51.910;7.724;2024-03-08T10:23:00;27.30;;;19.08;;
39264;SDS011;42646;51.910;7.724;2024-03-08T10:25:37;25.05;;;16.83;;
39264;SDS011;42646;51.910;7.724;2024-03-08T10:28:05;25.02;;;16.15;;
39264;SDS011;42646;51.910;7.724;2024-03-08T10:30:33;24.77;;;16.80;;
39264;SDS011;42646;51.910;7.724;2024-03-08T10:33:00;26.20;;;16.88;;
39264;SDS011;42646;51.910;7.724;2024-03-08T10:35:32;24.33;;;16.92;;
39264;SDS011;42646;51.910;7.724;2024-03-08T10:38:00;25.25;;;16.80;;
39264;SDS011;42646;51.910;7.724;2024-03-08T10:40:33;26.50;;;17.35;;
39264;SDS011;42646;51.910;7.724;2024-03-08T10:43:03;26.25;;;16.92;;
39264;SDS011;42646;51.910;7.724;2024-03-08T10:45:31;25.85;;;16.02;;
39264;SDS011;42646;51.910;7.724;2024-03-08T10:48:04;25.83;;;16.77;;
39264;SDS011;42646;51.910;7.724;2024-03-08T10:50:46;24.80;;;17.05;;
39264;SDS011;42646;51.910;7.724;2024-03-08T10:55:45;24.52;;;15.88;;
39264;SDS011;42646;51.910;7.724;2024-03-08T10:58:14;23.88;;;16.15;;
39264;SDS011;42646;51.910;7.724;2024-03-08T11:00:43;23.25;;;15.70;;
39264;SDS011;42646;51.910;7.724;2024-03-08T11:06:14;25.80;;;15.90;;
39264;SDS011;42646;51.910;7.724;2024-03-08T11:11:23;22.40;;;15.30;;
39264;SDS011;42646;51.910;7.724;2024-03-08T11:14:00;22.67;;;14.93;;
39264;SDS011;42646;51.910;7.724;2024-03-08T11:16:38;27.38;;;16.13;;
39264;SDS011;42646;51.910;7.724;2024-03-08T11:19:25;22.98;;;15.05;;
39264;SDS011;42646;51.910;7.724;2024-03-08T11:22:01;22.00;;;14.73;;
39264;SDS011;42646;51.910;7.724;2024-03-08T11:24:39;21.65;;;14.95;;
39264;SDS011;42646;51.910;7.724;2024-03-08T11:27:09;23.20;;;15.23;;
39264;SDS011;42646;51.910;7.724;2024-03-08T11:29:38;22.95;;;14.75;;
39264;SDS011;42646;51.910;7.724;2024-03-08T11:32:08;21.92;;;13.95;;
39264;SDS011;42646;51.910;7.724;2024-03-08T11:34:37;20.02;;;13.98;;
39264;SDS011;42646;51.910;7.724;2024-03-08T11:37:07;23.15;;;14.98;;
39264;SDS011;42646;51.910;7.724;2024-03-08T11:39:39;21.77;;;14.95;;
39264;SDS011;42646;51.910;7.724;2024-03-08T11:42:07;23.48;;;14.43;;
39264;SDS011;42646;51.910;7.724;2024-03-08T11:44:36;22.45;;;14.10;;
39264;SDS011;42646;51.910;7.724;2024-03-08T11:47:07;21.88;;;14.80;;
39264;SDS011;42646;51.910;7.724;2024-03-08T11:49:36;25.73;;;15.10;;
39264;SDS011;42646;51.910;7.724;2024-03-08T11:52:04;22.80;;;14.85;;
39264;SDS011;42646;51.910;7.724;2024-03-08T11:54:33;22.67;;;14.43;;
39264;SDS011;42646;51.910;7.724;2024-03-08T11:57:02;20.27;;;14.02;;
39264;SDS011;42646;51.910;7.724;2024-03-08T11:59:31;23.25;;;13.88;;
39264;SDS011;42646;51.910;7.724;2024-03-08T12:02:01;20.83;;;13.75;;
39264;SDS011;42646;51.910;7.724;2024-03-08T12:04:30;21.50;;;14.07;;
39264;SDS011;42646;51.910;7.724;2024-03-08T12:06:59;21.42;;;14.02;;
39264;SDS011;42646;51.910;7.724;2024-03-08T12:09:28;20.38;;;13.35;;
39264;SDS011;42646;51.910;7.724;2024-03-08T12:11:57;18.02;;;12.57;;
39264;SDS011;42646;51.910;7.724;2024-03-08T12:14:25;18.40;;;13.15;;
39264;SDS011;42646;51.910;7.724;2024-03-08T12:16:53;19.83;;;13.05;;
39264;SDS011;42646;51.910;7.724;2024-03-08T12:19:21;19.95;;;13.85;;
39264;SDS011;42646;51.910;7.724;2024-03-08T12:21:49;19.17;;;12.63;;
39264;SDS011;42646;51.910;7.724;2024-03-08T12:24:16;22.77;;;13.63;;
39264;SDS011;42646;51.910;7.724;2024-03-08T12:26:45;18.90;;;13.32;;
39264;SDS011;42646;51.910;7.724;2024-03-08T12:29:16;20.98;;;13.57;;
39264;SDS011;42646;51.910;7.724;2024-03-08T12:31:46;19.08;;;12.75;;
39264;SDS011;42646;51.910;7.724;2024-03-08T12:34:14;18.20;;;12.18;;
39264;SDS011;42646;51.910;7.724;2024-03-08T12:36:46;21.88;;;12.85;;
39264;SDS011;42646;51.910;7.724;2024-03-08T12:39:18;17.20;;;11.93;;
39264;SDS011;42646;51.910;7.724;2024-03-08T12:41:49;18.92;;;12.23;;
39264;SDS011;42646;51.910;7.724;2024-03-08T12:44:19;18.98;;;12.68;;
39264;SDS011;42646;51.910;7.724;2024-03-08T12:46:48;19.30;;;12.70;;
39264;SDS011;42646;51.910;7.724;2024-03-08T12:49:19;21.48;;;13.68;;
39264;SDS011;42646;51.910;7.724;2024-03-08T12:51:48;19.63;;;12.60;;
39264;SDS011;42646;51.910;7.724;2024-03-08T12:54:18;19.98;;;13.63;;
39264;SDS011;42646;51.910;7.724;2024-03-08T12:56:49;20.55;;;13.52;;
39264;SDS011;42646;51.910;7.724;2024-03-08T12:59:21;18.52;;;12.60;;
39264;SDS011;42646;51.910;7.724;2024-03-08T13:01:49;18.55;;;12.18;;
39264;SDS011;42646;51.910;7.724;2024-03-08T13:04:19;18.25;;;12.60;;
39264;SDS011;42646;51.910;7.724;2024-03-08T13:06:47;19.02;;;13.30;;
39264;SDS011;42646;51.910;7.724;2024-03-08T13:09:20;20.70;;;13.75;;
39264;SDS011;42646;51.910;7.724;2024-03-08T13:11:48;21.15;;;14.00;;
39264;SDS011;42646;51.910;7.724;2024-03-08T13:14:16;18.98;;;13.40;;
39264;SDS011;42646;51.910;7.724;2024-03-08T13:16:45;24.98;;;14.25;;
39264;SDS011;42646;51.910;7.724;2024-03-08T13:19:14;20.97;;;13.73;;
39264;SDS011;42646;51.910;7.724;2024-03-08T13:21:42;19.50;;;13.23;;
39264;SDS011;42646;51.910;7.724;2024-03-08T13:24:15;20.10;;;13.68;;
39264;SDS011;42646;51.910;7.724;2024-03-08T13:26:43;19.35;;;13.50;;
39264;SDS011;42646;51.910;7.724;2024-03-08T13:29:11;20.17;;;13.48;;
39264;SDS011;42646;51.910;7.724;2024-03-08T13:31:41;18.98;;;13.43;;
39264;SDS011;42646;51.910;7.724;2024-03-08T13:34:10;20.52;;;14.07;;
39264;SDS011;42646;51.910;7.724;2024-03-08T13:36:38;21.08;;;14.38;;
39264;SDS011;42646;51.910;7.724;2024-03-08T13:39:10;20.10;;;13.23;;
39264;SDS011;42646;51.910;7.724;2024-03-08T13:41:41;19.65;;;13.75;;
39264;SDS011;42646;51.910;7.724;2024-03-08T13:44:10;19.30;;;13.45;;
39264;SDS011;42646;51.910;7.724;2024-03-08T13:46:38;21.75;;;14.32;;
39264;SDS011;42646;51.910;7.724;2024-03-08T13:49:05;20.38;;;13.48;;
39264;SDS011;42646;51.910;7.724;2024-03-08T13:51:35;21.42;;;13.88;;
39264;SDS011;42646;51.910;7.724;2024-03-08T13:54:03;23.30;;;14.60;;
39264;SDS011;42646;51.910;7.724;2024-03-08T13:56:33;20.60;;;14.27;;
39264;SDS011;42646;51.910;7.724;2024-03-08T13:59:01;20.33;;;14.45;;
39264;SDS011;42646;51.910;7.724;2024-03-08T14:01:29;22.20;;;14.45;;
39264;SDS011;42646;51.910;7.724;2024-03-08T14:03:57;19.65;;;13.15;;
39264;SDS011;42646;51.910;7.724;2024-03-08T14:06:25;20.08;;;14.07;;
39264;SDS011;42646;51.910;7.724;2024-03-08T14:08:54;20.92;;;14.23;;
39264;SDS011;42646;51.910;7.724;2024-03-08T14:11:23;22.00;;;14.60;;
39264;SDS011;42646;51.910;7.724;2024-03-08T14:13:51;25.20;;;14.60;;
39264;SDS011;42646;51.910;7.724;2024-03-08T14:16:20;20.38;;;14.40;;
39264;SDS011;42646;51.910;7.724;2024-03-08T14:18:47;20.15;;;14.07;;
39264;SDS011;42646;51.910;7.724;2024-03-08T14:21:15;22.40;;;14.43;;
39264;SDS011;42646;51.910;7.724;2024-03-08T14:23:43;24.13;;;15.32;;
39264;SDS011;42646;51.910;7.724;2024-03-08T14:26:12;21.92;;;15.20;;
39264;SDS011;42646;51.910;7.724;2024-03-08T14:28:40;21.85;;;15.05;;
39264;SDS011;42646;51.910;7.724;2024-03-08T14:31:08;20.40;;;13.23;;
39264;SDS011;42646;51.910;7.724;2024-03-08T14:33:38;20.50;;;14.52;;
39264;SDS011;42646;51.910;7.724;2024-03-08T14:36:08;21.52;;;14.95;;
39264;SDS011;42646;51.910;7.724;2024-03-08T14:38:39;21.58;;;14.88;;
39264;SDS011;42646;51.910;7.724;2024-03-08T14:41:07;23.08;;;16.33;;
39264;SDS011;42646;51.910;7.724;2024-03-08T14:43:36;20.85;;;14.13;;